Time,TemperatureF,DewpointF,PressureIn,WindDirection,WindDirectionDegrees,WindSpeedMPH,WindSpeedGustMPH,Humidity,HourlyPrecipIn,Conditions,Clouds,dailyrainin,SolarRadiationWatts/m^2,SoftwareType,DateUTC
2013-03-12 00:02:00,25.2,19.9,30.24,NNE,24,0.0,0.0,80,0.00,,,0.00,0,Wunderground v.1.15,2013-03-12 07:02:00,
2013-03-12 00:08:00,25.6,20.3,30.23,NNE,24,0.0,0.0,80,0.00,,,0.00,0,Wunderground v.1.15,2013-03-12 07:08:00,
2013-03-12 00:13:00,25.9,20.6,30.23,NNE,24,0.0,0.0,80,0.00,,,0.00,0,Wunderground v.1.15,2013-03-12 07:13:00,
2013-03-12 00:19:00,25.7,20.4,30.23,NNE,24,0.0,0.0,80,0.00,,,0.00,0,Wunderground v.1.15,2013-03-12 07:19:00,
2013-03-12 00:24:00,25.3,20.0,30.23,NNE,24,0.0,0.0,80,0.00,,,0.00,0,Wunderground v.1.15,2013-03-12 07:24:00,
2013-03-12 00:30:00,24.9,19.9,30.23,NNE,24,0.0,0.0,81,0.00,,,0.00,0,Wunderground v.1.15,2013-03-12 07:30:00,
2013-03-12 00:35:00,24.8,19.8,30.23,NNE,24,0.0,0.0,81,0.00,,,0.00,0,Wunderground v.1.15,2013-03-12 07:35:00,
2013-03-12 00:40:00,24.5,19.5,30.23,NNE,24,0.0,0.0,81,0.00,,,0.00,0,Wunderground v.1.15,2013-03-12 07:40:00,
2013-03-12 00:46:00,24.0,19.0,30.23,NNE,24,0.0,0.0,81,0.00,,,0.00,0,Wunderground v.1.15,2013-03-12 07:46:00,
2013-03-12 00:51:00,23.9,18.9,30.23,NNE,24,0.0,0.0,81,0.00,,,0.00,0,Wunderground v.1.15,2013-03-12 07:51:00,
2013-03-12 00:57:00,23.8,18.8,30.23,NNE,24,0.0,0.0,81,0.00,,,0.00,0,Wunderground v.1.15,2013-03-12 07:57:00,
2013-03-12 01:03:00,24.0,19.3,30.23,NNE,24,0.0,0.0,82,0.00,,,0.00,0,Wunderground v.1.15,2013-03-12 08:03:00,
2013-03-12 01:08:00,23.8,18.8,30.23,NNE,24,0.0,0.0,81,0.00,,,0.00,0,Wunderground v.1.15,2013-03-12 08:08:00,
2013-03-12 01:14:00,23.6,18.6,30.23,NNE,24,0.0,0.0,81,0.00,,,0.00,0,Wunderground v.1.15,2013-03-12 08:14:00,
2013-03-12 01:19:00,23.7,18.7,30.24,NNE,24,0.0,0.0,81,0.00,,,0.00,0,Wunderground v.1.15,2013-03-12 08:19:00,
2013-03-12 01:25:00,23.8,18.8,30.24,NNE,24,0.0,0.0,81,0.00,,,0.00,0,Wunderground v.1.15,2013-03-12 08:25:00,
2013-03-12 01:31:00,23.7,18.7,30.24,NNE,24,0.0,0.0,81,0.00,,,0.00,0,Wunderground v.1.15,2013-03-12 08:31:00,
2013-03-12 01:37:00,23.6,18.6,30.24,NNE,24,0.0,0.0,81,0.00,,,0.00,0,Wunderground v.1.15,2013-03-12 08:37:00,
2013-03-12 01:42:00,23.6,18.6,30.24,NNE,24,0.0,0.0,81,0.00,,,0.00,0,Wunderground v.1.15,2013-03-12 08:42:00,
2013-03-12 01:48:00,23.7,19.0,30.25,NNE,24,0.0,0.0,82,0.00,,,0.00,0,Wunderground v.1.15,2013-03-12 08:48:00,
2013-03-12 01:53:00,23.8,19.1,30.25,NNE,24,0.0,0.0,82,0.00,,,0.00,0,Wunderground v.1.15,2013-03-12 08:53:00,
2013-03-12 01:59:00,23.5,18.8,30.25,NNE,24,0.0,0.0,82,0.00,,,0.00,0,Wunderground v.1.15,2013-03-12 08:59:00,
2013-03-12 02:04:00,23.3,18.6,30.24,NNE,24,0.0,0.0,82,0.00,,,0.00,0,Wunderground v.1.15,2013-03-12 09:04:00,
2013-03-12 02:09:00,23.2,18.5,30.24,NNE,24,0.0,0.0,82,0.00,,,0.00,0,Wunderground v.1.15,2013-03-12 09:09:00,
2013-03-12 02:14:00,23.1,18.4,30.24,NNE,24,0.0,0.0,82,0.00,,,0.00,0,Wunderground v.1.15,2013-03-12 09:14:00,
2013-03-12 02:19:00,22.9,18.2,30.24,NNE,24,0.0,0.0,82,0.00,,,0.00,0,Wunderground v.1.15,2013-03-12 09:19:00,
2013-03-12 02:24:00,22.8,18.4,30.24,NNE,24,0.0,0.0,83,0.00,,,0.00,0,Wunderground v.1.15,2013-03-12 09:24:00,
2013-03-12 02:29:00,22.9,18.5,30.23,NNE,24,0.0,0.0,83,0.00,,,0.00,0,Wunderground v.1.15,2013-03-12 09:29:00,
2013-03-12 02:34:00,22.8,18.4,30.23,NNE,24,0.0,0.0,83,0.00,,,0.00,0,Wunderground v.1.15,2013-03-12 09:34:00,
2013-03-12 02:39:00,22.7,18.3,30.23,NNE,24,0.0,0.0,83,0.00,,,0.00,0,Wunderground v.1.15,2013-03-12 09:39:00,
2013-03-12 02:44:00,22.9,18.5,30.23,NNE,24,0.0,0.0,83,0.00,,,0.00,0,Wunderground v.1.15,2013-03-12 09:44:00,
2013-03-12 02:49:00,23.1,18.7,30.23,NNE,24,0.0,0.0,83,0.00,,,0.00,0,Wunderground v.1.15,2013-03-12 09:49:00,
2013-03-12 02:54:00,22.9,18.5,30.23,NNE,24,0.0,0.0,83,0.00,,,0.00,0,Wunderground v.1.15,2013-03-12 09:54:00,
2013-03-12 02:59:00,22.8,18.4,30.23,NNE,24,0.0,0.0,83,0.00,,,0.00,0,Wunderground v.1.15,2013-03-12 09:59:00,
2013-03-12 03:04:00,22.7,18.3,30.23,NNE,24,0.0,0.0,83,0.00,,,0.00,0,Wunderground v.1.15,2013-03-12 10:04:00,
2013-03-12 03:09:00,22.8,18.4,30.23,NNE,24,0.0,0.0,83,0.00,,,0.00,0,Wunderground v.1.15,2013-03-12 10:09:00,
2013-03-12 03:14:00,22.6,18.2,30.23,NNE,24,0.0,0.0,83,0.00,,,0.00,0,Wunderground v.1.15,2013-03-12 10:14:00,
2013-03-12 03:19:00,22.3,17.9,30.22,NNE,24,0.0,0.0,83,0.00,,,0.00,0,Wunderground v.1.15,2013-03-12 10:19:00,
2013-03-12 03:24:00,22.1,17.7,30.23,NNE,24,0.0,0.0,83,0.00,,,0.00,0,Wunderground v.1.15,2013-03-12 10:24:00,
2013-03-12 03:29:00,21.9,17.5,30.23,NNE,24,0.0,0.0,83,0.00,,,0.00,0,Wunderground v.1.15,2013-03-12 10:29:00,
2013-03-12 03:34:00,21.7,17.3,30.23,NNE,24,0.0,0.0,83,0.00,,,0.00,0,Wunderground v.1.15,2013-03-12 10:34:00,
2013-03-12 03:39:00,21.6,17.2,30.23,NNE,24,0.0,0.0,83,0.00,,,0.00,0,Wunderground v.1.15,2013-03-12 10:39:00,
2013-03-12 03:44:00,21.7,17.3,30.22,NNE,24,0.0,0.0,83,0.00,,,0.00,0,Wunderground v.1.15,2013-03-12 10:44:00,
2013-03-12 03:49:00,21.6,17.2,30.22,NNE,24,0.0,0.0,83,0.00,,,0.00,0,Wunderground v.1.15,2013-03-12 10:49:00,
2013-03-12 03:54:00,21.6,17.2,30.22,NNE,24,0.0,0.0,83,0.00,,,0.00,0,Wunderground v.1.15,2013-03-12 10:54:00,
2013-03-12 03:59:00,22.1,18.0,30.22,NNE,24,0.0,0.0,84,0.00,,,0.00,0,Wunderground v.1.15,2013-03-12 10:59:00,
2013-03-12 04:04:00,22.4,18.0,30.22,NNE,24,0.0,0.0,83,0.00,,,0.00,0,Wunderground v.1.15,2013-03-12 11:04:00,
2013-03-12 04:09:00,22.4,18.0,30.23,NNE,24,0.0,0.0,83,0.00,,,0.00,0,Wunderground v.1.15,2013-03-12 11:09:00,
2013-03-12 04:14:00,22.3,17.9,30.23,NNE,24,0.0,0.0,83,0.00,,,0.00,0,Wunderground v.1.15,2013-03-12 11:14:00,
2013-03-12 04:19:00,22.1,17.7,30.23,NNE,24,0.0,0.0,83,0.00,,,0.00,0,Wunderground v.1.15,2013-03-12 11:19:00,
2013-03-12 04:24:00,22.1,17.7,30.23,NNE,24,0.0,0.0,83,0.00,,,0.00,0,Wunderground v.1.15,2013-03-12 11:24:00,
2013-03-12 04:29:00,21.8,17.4,30.23,NNE,24,0.0,0.0,83,0.00,,,0.00,0,Wunderground v.1.15,2013-03-12 11:29:00,
2013-03-12 04:34:00,21.7,17.3,30.23,NNE,24,0.0,0.0,83,0.00,,,0.00,0,Wunderground v.1.15,2013-03-12 11:34:00,
2013-03-12 04:39:00,21.5,17.1,30.23,NNE,24,0.0,0.0,83,0.00,,,0.00,0,Wunderground v.1.15,2013-03-12 11:39:00,
2013-03-12 04:44:00,21.2,16.8,30.24,NNE,24,0.0,0.0,83,0.00,,,0.00,0,Wunderground v.1.15,2013-03-12 11:44:00,
2013-03-12 04:49:00,20.9,16.5,30.24,NNE,24,0.0,0.0,83,0.00,,,0.00,0,Wunderground v.1.15,2013-03-12 11:49:00,
2013-03-12 04:54:00,20.6,16.3,30.24,NNE,24,0.0,0.0,83,0.00,,,0.00,0,Wunderground v.1.15,2013-03-12 11:54:00,
2013-03-12 04:59:00,20.5,16.2,30.24,NNE,24,0.0,0.0,83,0.00,,,0.00,0,Wunderground v.1.15,2013-03-12 11:59:00,
2013-03-12 05:04:00,20.6,16.3,30.24,NNE,24,0.0,0.0,83,0.00,,,0.00,0,Wunderground v.1.15,2013-03-12 12:04:00,
2013-03-12 05:09:00,20.7,16.6,30.24,NNE,24,0.0,0.0,84,0.00,,,0.00,0,Wunderground v.1.15,2013-03-12 12:09:00,
2013-03-12 05:15:00,21.0,16.9,30.24,NNE,24,0.0,0.0,84,0.00,,,0.00,0,Wunderground v.1.15,2013-03-12 12:15:00,
2013-03-12 05:19:00,21.3,17.2,30.24,NNE,24,0.0,0.0,84,0.00,,,0.00,0,Wunderground v.1.15,2013-03-12 12:19:00,
2013-03-12 05:24:00,21.2,17.1,30.25,NNE,24,0.0,0.0,84,0.00,,,0.00,0,Wunderground v.1.15,2013-03-12 12:24:00,
2013-03-12 05:30:00,21.2,17.1,30.25,NNE,24,0.0,0.0,84,0.00,,,0.00,0,Wunderground v.1.15,2013-03-12 12:30:00,
2013-03-12 05:35:00,21.5,17.4,30.25,NNE,24,0.0,0.0,84,0.00,,,0.00,0,Wunderground v.1.15,2013-03-12 12:35:00,
2013-03-12 05:40:00,22.1,18.3,30.25,NNE,24,0.0,0.0,85,0.00,,,0.00,0,Wunderground v.1.15,2013-03-12 12:40:00,
2013-03-12 05:45:00,22.7,18.6,30.25,NNE,24,0.0,0.0,84,0.00,,,0.00,0,Wunderground v.1.15,2013-03-12 12:45:00,
2013-03-12 05:50:00,22.7,18.6,30.25,NNE,24,0.0,0.0,84,0.00,,,0.00,0,Wunderground v.1.15,2013-03-12 12:50:00,
2013-03-12 05:55:00,22.2,17.8,30.26,NNE,24,0.0,0.0,83,0.00,,,0.00,0,Wunderground v.1.15,2013-03-12 12:55:00,
2013-03-12 06:00:00,21.7,17.1,30.25,NNE,24,0.0,0.0,82,0.00,,,0.00,0,Wunderground v.1.15,2013-03-12 13:00:00,
2013-03-12 06:05:00,21.2,16.6,30.26,NNE,24,0.0,0.0,82,0.00,,,0.00,0,Wunderground v.1.15,2013-03-12 13:05:00,
2013-03-12 06:10:00,20.9,16.3,30.26,NNE,24,0.0,0.0,82,0.00,,,0.00,0,Wunderground v.1.15,2013-03-12 13:10:00,
2013-03-12 06:15:00,20.7,16.4,30.26,NNE,24,0.0,0.0,83,0.00,,,0.00,0,Wunderground v.1.15,2013-03-12 13:15:00,
2013-03-12 06:20:00,20.6,16.3,30.26,NNE,24,0.0,0.0,83,0.00,,,0.00,0,Wunderground v.1.15,2013-03-12 13:20:00,
2013-03-12 06:25:00,20.4,16.1,30.26,NNE,24,0.0,0.0,83,0.00,,,0.00,0,Wunderground v.1.15,2013-03-12 13:25:00,
2013-03-12 06:30:00,20.4,16.1,30.26,NNE,24,0.0,0.0,83,0.00,,,0.00,0,Wunderground v.1.15,2013-03-12 13:30:00,
2013-03-12 06:35:00,20.5,16.2,30.27,NNE,24,0.0,0.0,83,0.00,,,0.00,0,Wunderground v.1.15,2013-03-12 13:35:00,
2013-03-12 06:40:00,20.8,16.7,30.27,NNE,24,0.0,0.0,84,0.00,,,0.00,5,Wunderground v.1.15,2013-03-12 13:40:00,
2013-03-12 06:45:00,21.1,17.0,30.27,NNE,24,0.0,0.0,84,0.00,,,0.00,7,Wunderground v.1.15,2013-03-12 13:45:00,
2013-03-12 06:50:00,21.3,17.2,30.27,NNE,24,0.0,0.0,84,0.00,,,0.00,9,Wunderground v.1.15,2013-03-12 13:50:00,
2013-03-12 06:55:00,21.2,16.8,30.27,NNE,24,0.0,0.0,83,0.00,,,0.00,11,Wunderground v.1.15,2013-03-12 13:55:00,
2013-03-12 07:00:00,21.1,17.0,30.27,NNE,24,0.0,0.0,84,0.00,,,0.00,14,Wunderground v.1.15,2013-03-12 14:00:00,
2013-03-12 07:05:00,21.3,17.2,30.27,NNE,24,0.0,0.0,84,0.00,,,0.00,26,Wunderground v.1.15,2013-03-12 14:05:00,
2013-03-12 07:10:00,21.9,17.8,30.27,NNE,24,0.0,0.0,84,0.00,,,0.00,42,Wunderground v.1.15,2013-03-12 14:10:00,
2013-03-12 07:15:00,22.5,18.4,30.27,NNE,24,0.0,0.0,84,0.00,,,0.00,74,Wunderground v.1.15,2013-03-12 14:15:00,
2013-03-12 07:20:00,23.3,19.2,30.28,NNE,24,0.0,0.0,84,0.00,,,0.00,98,Wunderground v.1.15,2013-03-12 14:20:00,
2013-03-12 07:25:00,24.4,20.5,30.28,NNE,24,0.0,0.0,85,0.00,,,0.00,130,Wunderground v.1.15,2013-03-12 14:25:00,
2013-03-12 07:30:00,27.1,23.5,30.28,NNE,24,0.0,0.0,86,0.00,,,0.00,149,Wunderground v.1.15,2013-03-12 14:30:00,
2013-03-12 07:35:00,29.7,25.5,30.28,NNE,24,0.0,0.0,84,0.00,,,0.00,158,Wunderground v.1.15,2013-03-12 14:35:00,
2013-03-12 07:40:00,30.7,25.9,30.28,NNE,24,0.0,0.0,82,0.00,,,0.00,169,Wunderground v.1.15,2013-03-12 14:40:00,
2013-03-12 07:45:00,33.4,27.9,30.29,NNE,24,5.0,6.0,80,0.00,,,0.00,183,Wunderground v.1.15,2013-03-12 14:45:00,
2013-03-12 07:50:00,36.9,29.1,30.29,NNE,13,6.0,6.0,73,0.00,,,0.00,197,Wunderground v.1.15,2013-03-12 14:50:00,
2013-03-12 07:55:00,39.1,28.7,30.29,NNE,13,4.0,6.0,66,0.00,,,0.00,218,Wunderground v.1.15,2013-03-12 14:55:00,
2013-03-12 08:00:00,40.7,27.9,30.29,NNE,13,4.0,5.0,60,0.00,,,0.00,237,Wunderground v.1.15,2013-03-12 15:00:00,
2013-03-12 08:05:00,41.8,28.1,30.29,NNE,13,1.0,5.0,58,0.00,,,0.00,258,Wunderground v.1.15,2013-03-12 15:05:00,
2013-03-12 08:10:00,42.6,28.4,30.29,NNE,13,2.0,3.0,57,0.00,,,0.00,279,Wunderground v.1.15,2013-03-12 15:10:00,
2013-03-12 08:15:00,43.1,28.0,30.29,NNE,13,3.0,6.0,55,0.00,,,0.00,297,Wunderground v.1.15,2013-03-12 15:15:00,
2013-03-12 08:20:00,43.4,27.8,30.29,NNE,13,3.0,4.0,54,0.00,,,0.00,316,Wunderground v.1.15,2013-03-12 15:20:00,
2013-03-12 08:25:00,43.8,27.8,30.29,North,360,3.0,8.0,53,0.00,,,0.00,332,Wunderground v.1.15,2013-03-12 15:25:00,
2013-03-12 08:30:00,44.5,28.4,30.29,North,360,2.0,4.0,53,0.00,,,0.00,350,Wunderground v.1.15,2013-03-12 15:30:00,
2013-03-12 08:35:00,45.0,27.5,30.29,North,360,3.0,6.0,50,0.00,,,0.00,367,Wunderground v.1.15,2013-03-12 15:35:00,
2013-03-12 08:40:00,45.3,27.7,30.29,North,355,0.0,5.0,50,0.00,,,0.00,385,Wunderground v.1.15,2013-03-12 15:40:00,
2013-03-12 08:45:00,45.8,27.7,30.29,North,360,6.0,10.0,49,0.00,,,0.00,403,Wunderground v.1.15,2013-03-12 15:45:00,
2013-03-12 08:50:00,46.0,26.9,30.29,North,360,7.0,7.0,47,0.00,,,0.00,418,Wunderground v.1.15,2013-03-12 15:50:00,
2013-03-12 08:55:00,46.3,26.6,30.29,NNE,14,5.0,10.0,46,0.00,,,0.00,436,Wunderground v.1.15,2013-03-12 15:55:00,
2013-03-12 09:00:00,46.5,26.3,30.30,North,11,3.0,7.0,45,0.00,,,0.00,454,Wunderground v.1.15,2013-03-12 16:00:00,
2013-03-12 09:05:00,46.9,27.2,30.29,NNE,33,0.0,10.0,46,0.00,,,0.00,466,Wunderground v.1.15,2013-03-12 16:05:00,
2013-03-12 09:10:00,47.0,26.2,30.29,NNE,21,6.0,6.0,44,0.00,,,0.00,482,Wunderground v.1.15,2013-03-12 16:10:00,
2013-03-12 09:15:00,47.0,26.2,30.29,North,355,5.0,9.0,44,0.00,,,0.00,497,Wunderground v.1.15,2013-03-12 16:15:00,
2013-03-12 09:20:00,47.2,25.8,30.29,North,355,4.0,9.0,43,0.00,,,0.00,513,Wunderground v.1.15,2013-03-12 16:20:00,
2013-03-12 09:25:00,47.6,26.2,30.29,NNE,25,2.0,10.0,43,0.00,,,0.00,529,Wunderground v.1.15,2013-03-12 16:25:00,
2013-03-12 09:30:00,47.7,25.7,30.29,NNE,25,0.0,3.0,42,0.00,,,0.00,543,Wunderground v.1.15,2013-03-12 16:30:00,
2013-03-12 09:35:00,48.2,26.2,30.29,NE,49,0.0,7.0,42,0.00,,,0.00,557,Wunderground v.1.15,2013-03-12 16:35:00,
2013-03-12 09:40:00,48.9,26.8,30.29,NNE,22,6.0,9.0,42,0.00,,,0.00,573,Wunderground v.1.15,2013-03-12 16:40:00,
2013-03-12 09:45:00,48.9,26.8,30.29,NE,51,7.0,11.0,42,0.00,,,0.00,584,Wunderground v.1.15,2013-03-12 16:45:00,
2013-03-12 09:50:00,49.1,26.4,30.29,NE,38,1.0,8.0,41,0.00,,,0.00,598,Wunderground v.1.15,2013-03-12 16:50:00,
2013-03-12 09:56:00,49.1,25.8,30.30,NE,40,4.0,12.0,40,0.00,,,0.00,610,Wunderground v.1.15,2013-03-12 16:56:00,
2013-03-12 10:00:00,49.7,26.3,30.29,NE,46,5.0,7.0,40,0.00,,,0.00,624,Wunderground v.1.15,2013-03-12 17:00:00,
2013-03-12 10:06:00,49.7,26.3,30.29,NE,44,7.0,11.0,40,0.00,,,0.00,638,Wunderground v.1.15,2013-03-12 17:06:00,
2013-03-12 10:11:00,49.7,25.7,30.29,NE,40,1.0,11.0,39,0.00,,,0.00,650,Wunderground v.1.15,2013-03-12 17:11:00,
2013-03-12 10:16:00,49.9,26.5,30.29,East,83,0.0,11.0,40,0.00,,,0.00,664,Wunderground v.1.15,2013-03-12 17:16:00,
2013-03-12 10:21:00,50.1,26.7,30.29,ENE,63,10.0,11.0,40,0.00,,,0.00,679,Wunderground v.1.15,2013-03-12 17:21:00,
2013-03-12 10:26:00,50.1,26.1,30.29,NE,36,0.0,12.0,39,0.00,,,0.00,687,Wunderground v.1.15,2013-03-12 17:26:00,
2013-03-12 10:31:00,50.3,26.3,30.29,NE,51,2.0,7.0,39,0.00,,,0.00,694,Wunderground v.1.15,2013-03-12 17:31:00,
2013-03-12 10:36:00,50.6,26.5,30.28,East,91,5.0,10.0,39,0.00,,,0.00,693,Wunderground v.1.15,2013-03-12 17:36:00,
2013-03-12 10:41:00,50.8,26.7,30.28,East,99,2.0,5.0,39,0.00,,,0.00,686,Wunderground v.1.15,2013-03-12 17:41:00,
2013-03-12 10:46:00,50.9,26.8,30.28,ESE,107,4.0,9.0,39,0.00,,,0.00,719,Wunderground v.1.15,2013-03-12 17:46:00,
2013-03-12 10:51:00,51.5,26.7,30.28,East,86,5.0,5.0,38,0.00,,,0.00,728,Wunderground v.1.15,2013-03-12 17:51:00,
2013-03-12 10:56:00,51.3,26.5,30.28,ENE,78,3.0,11.0,38,0.00,,,0.00,735,Wunderground v.1.15,2013-03-12 17:56:00,
2013-03-12 11:01:00,51.5,26.7,30.27,ENE,57,4.0,5.0,38,0.00,,,0.00,742,Wunderground v.1.15,2013-03-12 18:01:00,
2013-03-12 11:06:00,51.3,26.5,30.28,ENE,59,7.0,11.0,38,0.00,,,0.00,751,Wunderground v.1.15,2013-03-12 18:06:00,
2013-03-12 11:11:00,51.4,26.6,30.27,NE,49,7.0,7.0,38,0.00,,,0.00,756,Wunderground v.1.15,2013-03-12 18:11:00,
2013-03-12 11:16:00,51.9,26.4,30.27,NNE,21,5.0,11.0,37,0.00,,,0.00,765,Wunderground v.1.15,2013-03-12 18:16:00,
2013-03-12 11:21:00,52.2,26.7,30.27,NE,36,5.0,6.0,37,0.00,,,0.00,766,Wunderground v.1.15,2013-03-12 18:21:00,
2013-03-12 11:26:00,52.0,27.1,30.27,NE,49,4.0,9.0,38,0.00,,,0.00,773,Wunderground v.1.15,2013-03-12 18:26:00,
2013-03-12 11:32:00,52.7,26.5,30.27,East,90,4.0,6.0,36,0.00,,,0.00,782,Wunderground v.1.15,2013-03-12 18:32:00,
2013-03-12 11:37:00,52.8,26.6,30.27,NE,40,10.0,10.0,36,0.00,,,0.00,788,Wunderground v.1.15,2013-03-12 18:37:00,
2013-03-12 11:42:00,52.6,27.7,30.27,ENE,74,6.0,6.0,38,0.00,,,0.00,789,Wunderground v.1.15,2013-03-12 18:42:00,
2013-03-12 11:47:00,53.4,27.8,30.27,ENE,65,10.0,10.0,37,0.00,,,0.00,795,Wunderground v.1.15,2013-03-12 18:47:00,
2013-03-12 11:52:00,53.6,27.9,30.27,East,87,4.0,9.0,37,0.00,,,0.00,798,Wunderground v.1.15,2013-03-12 18:52:00,
2013-03-12 11:57:00,53.5,27.2,30.26,East,94,9.0,10.0,36,0.00,,,0.00,802,Wunderground v.1.15,2013-03-12 18:57:00,
2013-03-12 12:02:00,53.0,27.4,30.27,East,101,8.0,9.0,37,0.00,,,0.00,803,Wunderground v.1.15,2013-03-12 19:02:00,
2013-03-12 12:07:00,53.0,26.0,30.26,ENE,72,2.0,12.0,35,0.00,,,0.00,805,Wunderground v.1.15,2013-03-12 19:07:00,
2013-03-12 12:12:00,53.0,26.0,30.26,East,79,4.0,8.0,35,0.00,,,0.00,807,Wunderground v.1.15,2013-03-12 19:12:00,
2013-03-12 12:17:00,53.6,27.3,30.26,East,83,6.0,11.0,36,0.00,,,0.00,809,Wunderground v.1.15,2013-03-12 19:17:00,
2013-03-12 12:22:00,53.9,26.1,30.26,East,95,1.0,7.0,34,0.00,,,0.00,809,Wunderground v.1.15,2013-03-12 19:22:00,
2013-03-12 12:27:00,53.7,26.0,30.26,East,94,7.0,13.0,34,0.00,,,0.00,810,Wunderground v.1.15,2013-03-12 19:27:00,
2013-03-12 12:32:00,54.6,28.2,30.26,ENE,76,2.0,6.0,36,0.00,,,0.00,809,Wunderground v.1.15,2013-03-12 19:32:00,
2013-03-12 12:37:00,55.0,27.8,30.26,ENE,69,5.0,6.0,35,0.00,,,0.00,809,Wunderground v.1.15,2013-03-12 19:37:00,
2013-03-12 12:42:00,54.8,26.9,30.26,ESE,103,2.0,6.0,34,0.00,,,0.00,805,Wunderground v.1.15,2013-03-12 19:42:00,
2013-03-12 12:48:00,55.1,28.6,30.26,East,84,3.0,7.0,36,0.00,,,0.00,807,Wunderground v.1.15,2013-03-12 19:48:00,
2013-03-12 12:53:00,54.8,26.2,30.25,ENE,66,3.0,13.0,33,0.00,,,0.00,803,Wunderground v.1.15,2013-03-12 19:53:00,
2013-03-12 12:58:00,54.5,26.7,30.25,East,86,9.0,15.0,34,0.00,,,0.00,802,Wunderground v.1.15,2013-03-12 19:58:00,
2013-03-12 13:03:00,54.7,26.1,30.25,East,87,1.0,6.0,33,0.00,,,0.00,798,Wunderground v.1.15,2013-03-12 20:03:00,
2013-03-12 13:08:00,54.8,26.2,30.25,East,90,3.0,6.0,33,0.00,,,0.00,795,Wunderground v.1.15,2013-03-12 20:08:00,
2013-03-12 13:13:00,54.8,27.6,30.24,ENE,71,3.0,7.0,35,0.00,,,0.00,793,Wunderground v.1.15,2013-03-12 20:13:00,
2013-03-12 13:18:00,55.0,27.8,30.24,ESE,103,3.0,7.0,35,0.00,,,0.00,788,Wunderground v.1.15,2013-03-12 20:18:00,
2013-03-12 13:23:00,55.6,26.9,30.24,ENE,70,0.0,7.0,33,0.00,,,0.00,782,Wunderground v.1.15,2013-03-12 20:23:00,
2013-03-12 13:28:00,55.7,27.7,30.24,NE,46,3.0,7.0,34,0.00,,,0.00,779,Wunderground v.1.15,2013-03-12 20:28:00,
2013-03-12 13:33:00,55.9,27.9,30.23,ENE,74,5.0,8.0,34,0.00,,,0.00,773,Wunderground v.1.15,2013-03-12 20:33:00,
2013-03-12 13:39:00,55.9,27.9,30.23,NE,37,0.0,8.0,34,0.00,,,0.00,766,Wunderground v.1.15,2013-03-12 20:39:00,
2013-03-12 13:44:00,56.5,27.0,30.23,East,96,3.0,7.0,32,0.00,,,0.00,759,Wunderground v.1.15,2013-03-12 20:44:00,
2013-03-12 13:49:00,56.2,26.7,30.23,East,97,0.0,7.0,32,0.00,,,0.00,754,Wunderground v.1.15,2013-03-12 20:49:00,
2013-03-12 13:54:00,56.6,27.8,30.22,East,99,0.0,5.0,33,0.00,,,0.00,747,Wunderground v.1.15,2013-03-12 20:54:00,
2013-03-12 13:59:00,56.7,26.4,30.22,SE,125,1.0,9.0,31,0.00,,,0.00,737,Wunderground v.1.15,2013-03-12 20:59:00,
2013-03-12 14:04:00,57.0,27.4,30.22,East,83,0.0,3.0,32,0.00,,,0.00,729,Wunderground v.1.15,2013-03-12 21:04:00,
2013-03-12 14:09:00,56.6,26.3,30.22,SE,137,0.0,7.0,31,0.00,,,0.00,722,Wunderground v.1.15,2013-03-12 21:09:00,
2013-03-12 14:14:00,56.7,26.4,30.22,ESE,109,0.0,2.0,31,0.00,,,0.00,712,Wunderground v.1.15,2013-03-12 21:14:00,
2013-03-12 14:19:00,57.2,26.0,30.22,East,101,0.0,3.0,30,0.00,,,0.00,705,Wunderground v.1.15,2013-03-12 21:19:00,
2013-03-12 14:24:00,57.2,26.8,30.22,ESE,117,0.0,4.0,31,0.00,,,0.00,696,Wunderground v.1.15,2013-03-12 21:24:00,
2013-03-12 14:29:00,57.5,27.8,30.22,ESE,109,0.0,7.0,32,0.00,,,0.00,684,Wunderground v.1.15,2013-03-12 21:29:00,
2013-03-12 14:34:00,57.6,27.2,30.22,SE,142,0.0,4.0,31,0.00,,,0.00,675,Wunderground v.1.15,2013-03-12 21:34:00,
2013-03-12 14:39:00,58.0,26.7,30.22,East,92,4.0,4.0,30,0.00,,,0.00,664,Wunderground v.1.15,2013-03-12 21:39:00,
2013-03-12 14:44:00,57.9,27.4,30.21,ENE,75,3.0,7.0,31,0.00,,,0.00,650,Wunderground v.1.15,2013-03-12 21:44:00,
2013-03-12 14:49:00,57.7,25.6,30.21,ENE,75,0.0,7.0,29,0.00,,,0.00,640,Wunderground v.1.15,2013-03-12 21:49:00,
2013-03-12 14:54:00,57.9,26.6,30.21,East,99,2.0,3.0,30,0.00,,,0.00,629,Wunderground v.1.15,2013-03-12 21:54:00,
2013-03-12 14:59:00,58.2,26.1,30.21,ENE,78,4.0,6.0,29,0.00,,,0.00,619,Wunderground v.1.15,2013-03-12 21:59:00,
2013-03-12 15:04:00,58.0,25.0,30.21,SE,130,1.0,5.0,28,0.00,,,0.00,605,Wunderground v.1.15,2013-03-12 22:04:00,
2013-03-12 15:09:00,58.0,26.7,30.21,ENE,69,1.0,5.0,30,0.00,,,0.00,592,Wunderground v.1.15,2013-03-12 22:09:00,
2013-03-12 15:14:00,58.0,25.9,30.21,ENE,78,0.0,4.0,29,0.00,,,0.00,578,Wunderground v.1.15,2013-03-12 22:14:00,
2013-03-12 15:19:00,58.4,25.4,30.21,SSE,167,0.0,4.0,28,0.00,,,0.00,564,Wunderground v.1.15,2013-03-12 22:19:00,
2013-03-12 15:24:00,59.0,27.6,30.21,East,98,6.0,13.0,30,0.00,,,0.00,552,Wunderground v.1.15,2013-03-12 22:24:00,
2013-03-12 15:29:00,58.9,25.8,30.21,ENE,58,0.0,13.0,28,0.00,,,0.00,534,Wunderground v.1.15,2013-03-12 22:29:00,
2013-03-12 15:34:00,58.6,25.6,30.21,ENE,58,0.0,2.0,28,0.00,,,0.00,520,Wunderground v.1.15,2013-03-12 22:34:00,
2013-03-12 15:39:00,58.6,25.6,30.21,East,86,2.0,4.0,28,0.00,,,0.00,506,Wunderground v.1.15,2013-03-12 22:39:00,
2013-03-12 15:44:00,59.0,25.9,30.20,East,88,0.0,4.0,28,0.00,,,0.00,494,Wunderground v.1.15,2013-03-12 22:44:00,
2013-03-12 15:49:00,59.0,27.6,30.20,ESE,103,3.0,8.0,30,0.00,,,0.00,478,Wunderground v.1.15,2013-03-12 22:49:00,
2013-03-12 15:54:00,59.0,26.8,30.20,East,101,6.0,10.0,29,0.00,,,0.00,464,Wunderground v.1.15,2013-03-12 22:54:00,
2013-03-12 15:59:00,58.5,26.3,30.21,East,80,0.0,10.0,29,0.00,,,0.00,446,Wunderground v.1.15,2013-03-12 22:59:00,
2013-03-12 16:04:00,58.4,25.4,30.21,ESE,113,3.0,8.0,28,0.00,,,0.00,431,Wunderground v.1.15,2013-03-12 23:04:00,
2013-03-12 16:09:00,58.4,26.2,30.21,SE,128,0.0,9.0,29,0.00,,,0.00,413,Wunderground v.1.15,2013-03-12 23:09:00,
2013-03-12 16:14:00,59.0,26.8,30.21,ENE,65,2.0,15.0,29,0.00,,,0.00,399,Wunderground v.1.15,2013-03-12 23:14:00,
2013-03-12 16:19:00,59.0,26.8,30.21,ESE,111,2.0,15.0,29,0.00,,,0.00,380,Wunderground v.1.15,2013-03-12 23:19:00,
2013-03-12 16:24:00,58.4,24.5,30.21,ENE,71,0.0,5.0,27,0.00,,,0.00,367,Wunderground v.1.15,2013-03-12 23:24:00,
2013-03-12 16:29:00,58.4,26.2,30.21,East,88,3.0,6.0,29,0.00,,,0.00,350,Wunderground v.1.15,2013-03-12 23:29:00,
2013-03-12 16:34:00,58.1,26.0,30.21,ESE,105,1.0,5.0,29,0.00,,,0.00,330,Wunderground v.1.15,2013-03-12 23:34:00,
2013-03-12 16:39:00,57.7,24.8,30.21,SE,124,0.0,7.0,28,0.00,,,0.00,315,Wunderground v.1.15,2013-03-12 23:39:00,
2013-03-12 16:44:00,57.7,25.6,30.21,ESE,120,3.0,6.0,29,0.00,,,0.00,295,Wunderground v.1.15,2013-03-12 23:44:00,
2013-03-12 16:49:00,57.5,25.5,30.21,East,94,0.0,6.0,29,0.00,,,0.00,279,Wunderground v.1.15,2013-03-12 23:49:00,
2013-03-12 16:54:00,57.6,25.5,30.21,ENE,78,0.0,4.0,29,0.00,,,0.00,262,Wunderground v.1.15,2013-03-12 23:54:00,
2013-03-12 16:59:00,57.7,25.6,30.21,ENE,78,0.0,4.0,29,0.00,,,0.00,243,Wunderground v.1.15,2013-03-12 23:59:00,
2013-03-12 17:04:00,57.7,24.8,30.21,East,80,0.0,0.0,28,0.00,,,0.00,229,Wunderground v.1.15,2013-03-13 00:04:00,
2013-03-12 17:09:00,57.8,24.0,30.21,SE,140,0.0,3.0,27,0.00,,,0.00,209,Wunderground v.1.15,2013-03-13 00:09:00,
2013-03-12 17:14:00,57.7,25.6,30.21,East,82,0.0,2.0,29,0.00,,,0.00,190,Wunderground v.1.15,2013-03-13 00:14:00,
2013-03-12 17:19:00,57.4,24.5,30.21,ENE,74,0.0,4.0,28,0.00,,,0.00,169,Wunderground v.1.15,2013-03-13 00:19:00,
2013-03-12 17:25:00,57.0,25.0,30.21,East,82,0.0,4.0,29,0.00,,,0.00,146,Wunderground v.1.15,2013-03-13 00:25:00,
2013-03-12 17:30:00,56.5,24.6,30.21,East,92,0.0,6.0,29,0.00,,,0.00,125,Wunderground v.1.15,2013-03-13 00:30:00,
2013-03-12 17:34:00,56.1,25.1,30.21,East,96,0.0,6.0,30,0.00,,,0.00,104,Wunderground v.1.15,2013-03-13 00:34:00,
2013-03-12 17:40:00,55.8,24.8,30.21,East,88,0.0,6.0,30,0.00,,,0.00,88,Wunderground v.1.15,2013-03-13 00:40:00,
2013-03-12 17:45:00,55.7,25.5,30.21,ENE,69,0.0,2.0,31,0.00,,,0.00,70,Wunderground v.1.15,2013-03-13 00:45:00,
2013-03-12 17:50:00,55.4,25.2,30.22,East,95,0.0,0.0,31,0.00,,,0.00,53,Wunderground v.1.15,2013-03-13 00:50:00,
2013-03-12 17:55:00,55.1,25.0,30.21,East,86,0.0,3.0,31,0.00,,,0.00,39,Wunderground v.1.15,2013-03-13 00:55:00,
2013-03-12 18:00:00,54.8,25.5,30.22,East,91,0.0,0.0,32,0.00,,,0.00,26,Wunderground v.1.15,2013-03-13 01:00:00,
2013-03-12 18:05:00,54.3,25.8,30.22,East,91,0.0,0.0,33,0.00,,,0.00,18,Wunderground v.1.15,2013-03-13 01:05:00,
2013-03-12 18:10:00,53.5,25.1,30.22,East,91,0.0,0.0,33,0.00,,,0.00,14,Wunderground v.1.15,2013-03-13 01:10:00,
2013-03-12 18:15:00,52.5,24.9,30.22,East,92,0.0,0.0,34,0.00,,,0.00,12,Wunderground v.1.15,2013-03-13 01:15:00,
2013-03-12 18:20:00,51.6,25.5,30.23,East,91,0.0,0.0,36,0.00,,,0.00,11,Wunderground v.1.15,2013-03-13 01:20:00,
2013-03-12 18:25:00,50.8,25.4,30.23,East,92,0.0,0.0,37,0.00,,,0.00,7,Wunderground v.1.15,2013-03-13 01:25:00,
2013-03-12 18:30:00,50.0,25.4,30.23,East,92,0.0,0.0,38,0.00,,,0.00,5,Wunderground v.1.15,2013-03-13 01:30:00,
2013-03-12 18:35:00,49.2,24.6,30.23,East,91,0.0,0.0,38,0.00,,,0.00,0,Wunderground v.1.15,2013-03-13 01:35:00,
2013-03-12 18:40:00,48.8,24.3,30.23,East,91,0.0,0.0,38,0.00,,,0.00,0,Wunderground v.1.15,2013-03-13 01:40:00,
2013-03-12 18:45:00,48.5,24.6,30.23,East,92,0.0,0.0,39,0.00,,,0.00,0,Wunderground v.1.15,2013-03-13 01:45:00,
2013-03-12 18:51:00,47.6,26.2,30.23,East,92,0.0,0.0,43,0.00,,,0.00,0,Wunderground v.1.15,2013-03-13 01:51:00,
2013-03-12 18:57:00,46.9,25.5,30.24,East,92,0.0,0.0,43,0.00,,,0.00,0,Wunderground v.1.15,2013-03-13 01:57:00,
2013-03-12 19:02:00,46.3,25.6,30.24,East,91,0.0,0.0,44,0.00,,,0.00,0,Wunderground v.1.15,2013-03-13 02:02:00,
2013-03-12 19:07:00,45.8,25.6,30.24,East,92,0.0,0.0,45,0.00,,,0.00,0,Wunderground v.1.15,2013-03-13 02:07:00,
2013-03-12 19:12:00,45.5,24.8,30.24,East,92,0.0,0.0,44,0.00,,,0.00,0,Wunderground v.1.15,2013-03-13 02:12:00,
2013-03-12 19:17:00,44.2,25.2,30.25,East,92,0.0,0.0,47,0.00,,,0.00,0,Wunderground v.1.15,2013-03-13 02:17:00,
2013-03-12 19:22:00,44.2,24.2,30.25,East,91,0.0,0.0,45,0.00,,,0.00,0,Wunderground v.1.15,2013-03-13 02:22:00,
2013-03-12 19:27:00,44.2,24.2,30.25,East,92,0.0,0.0,45,0.00,,,0.00,0,Wunderground v.1.15,2013-03-13 02:27:00,
2013-03-12 19:32:00,43.3,24.9,30.25,East,92,0.0,0.0,48,0.00,,,0.00,0,Wunderground v.1.15,2013-03-13 02:32:00,
2013-03-12 19:37:00,42.2,24.9,30.25,East,91,0.0,0.0,50,0.00,,,0.00,0,Wunderground v.1.15,2013-03-13 02:37:00,
2013-03-12 19:42:00,41.0,25.2,30.25,East,91,0.0,0.0,53,0.00,,,0.00,0,Wunderground v.1.15,2013-03-13 02:42:00,
2013-03-12 19:47:00,40.2,24.9,30.25,East,91,0.0,0.0,54,0.00,,,0.00,0,Wunderground v.1.15,2013-03-13 02:47:00,
2013-03-12 19:52:00,40.2,24.9,30.26,East,91,0.0,0.0,54,0.00,,,0.00,0,Wunderground v.1.15,2013-03-13 02:52:00,
2013-03-12 19:57:00,39.6,24.7,30.26,East,91,0.0,0.0,55,0.00,,,0.00,0,Wunderground v.1.15,2013-03-13 02:57:00,
2013-03-12 20:02:00,38.5,24.6,30.26,East,91,0.0,0.0,57,0.00,,,0.00,0,Wunderground v.1.15,2013-03-13 03:02:00,
2013-03-12 20:07:00,37.9,24.0,30.26,East,92,0.0,0.0,57,0.00,,,0.00,0,Wunderground v.1.15,2013-03-13 03:07:00,
2013-03-12 20:12:00,37.7,24.6,30.27,East,91,0.0,0.0,59,0.00,,,0.00,0,Wunderground v.1.15,2013-03-13 03:12:00,
2013-03-12 20:17:00,37.1,24.5,30.27,East,91,0.0,0.0,60,0.00,,,0.00,0,Wunderground v.1.15,2013-03-13 03:17:00,
2013-03-12 20:22:00,36.5,24.7,30.27,East,92,0.0,0.0,62,0.00,,,0.00,0,Wunderground v.1.15,2013-03-13 03:22:00,
2013-03-12 20:27:00,36.1,24.7,30.27,East,92,0.0,0.0,63,0.00,,,0.00,0,Wunderground v.1.15,2013-03-13 03:27:00,
2013-03-12 20:32:00,35.7,24.7,30.27,East,91,0.0,0.0,64,0.00,,,0.00,0,Wunderground v.1.15,2013-03-13 03:32:00,
2013-03-12 20:37:00,35.3,24.7,30.27,East,91,0.0,0.0,65,0.00,,,0.00,0,Wunderground v.1.15,2013-03-13 03:37:00,
2013-03-12 20:42:00,34.5,24.3,30.28,East,91,0.0,0.0,66,0.00,,,0.00,0,Wunderground v.1.15,2013-03-13 03:42:00,
2013-03-12 20:47:00,33.9,24.4,30.28,East,91,0.0,0.0,68,0.00,,,0.00,0,Wunderground v.1.15,2013-03-13 03:47:00,
2013-03-12 20:52:00,33.9,24.4,30.28,East,92,0.0,0.0,68,0.00,,,0.00,0,Wunderground v.1.15,2013-03-13 03:52:00,
2013-03-12 20:58:00,33.4,24.3,30.28,East,91,0.0,0.0,69,0.00,,,0.00,0,Wunderground v.1.15,2013-03-13 03:58:00,
2013-03-12 21:00:00,33.4,24.3,30.28,East,92,0.0,0.0,69,0.00,,,0.00,0,Wunderground v.1.15,2013-03-13 04:00:00,
2013-03-12 21:05:00,33.4,24.3,30.28,East,91,0.0,0.0,69,0.00,,,0.00,0,Wunderground v.1.15,2013-03-13 04:05:00,
2013-03-12 21:10:00,33.3,24.2,30.28,East,92,0.0,0.0,69,0.00,,,0.00,0,Wunderground v.1.15,2013-03-13 04:10:00,
2013-03-12 21:15:00,33.0,24.6,30.28,East,91,0.0,0.0,71,0.00,,,0.00,0,Wunderground v.1.15,2013-03-13 04:15:00,
2013-03-12 21:20:00,32.2,23.5,30.29,East,91,0.0,0.0,70,0.00,,,0.00,0,Wunderground v.1.15,2013-03-13 04:20:00,
2013-03-12 21:25:00,31.2,23.2,30.29,East,92,0.0,0.0,72,0.00,,,0.00,0,Wunderground v.1.15,2013-03-13 04:25:00,
2013-03-12 21:30:00,30.8,23.5,30.29,East,92,0.0,0.0,74,0.00,,,0.00,0,Wunderground v.1.15,2013-03-13 04:30:00,
2013-03-12 21:35:00,30.7,23.4,30.30,East,91,0.0,0.0,74,0.00,,,0.00,0,Wunderground v.1.15,2013-03-13 04:35:00,
2013-03-12 21:40:00,30.8,23.8,30.30,East,91,0.0,0.0,75,0.00,,,0.00,0,Wunderground v.1.15,2013-03-13 04:40:00,
2013-03-12 21:45:00,31.1,23.8,30.30,East,91,0.0,0.0,74,0.00,,,0.00,0,Wunderground v.1.15,2013-03-13 04:45:00,
2013-03-12 21:50:00,31.1,23.1,30.30,East,91,0.0,0.0,72,0.00,,,0.00,0,Wunderground v.1.15,2013-03-13 04:50:00,
2013-03-12 21:55:00,30.8,23.2,30.30,East,92,0.0,0.0,73,0.00,,,0.00,0,Wunderground v.1.15,2013-03-13 04:55:00,
2013-03-12 22:00:00,31.0,23.4,30.30,East,91,0.0,0.0,73,0.00,,,0.00,0,Wunderground v.1.15,2013-03-13 05:00:00,
2013-03-12 22:05:00,31.3,23.6,30.30,East,92,0.0,0.0,73,0.00,,,0.00,0,Wunderground v.1.15,2013-03-13 05:05:00,
2013-03-12 22:10:00,31.5,23.5,30.30,East,91,0.0,0.0,72,0.00,,,0.00,0,Wunderground v.1.15,2013-03-13 05:10:00,
2013-03-12 22:15:00,31.0,23.0,30.30,East,91,0.0,0.0,72,0.00,,,0.00,0,Wunderground v.1.15,2013-03-13 05:15:00,
2013-03-12 22:20:00,31.1,23.8,30.31,East,92,0.0,0.0,74,0.00,,,0.00,0,Wunderground v.1.15,2013-03-13 05:20:00,
2013-03-12 22:25:00,31.0,23.4,30.31,East,92,0.0,0.0,73,0.00,,,0.00,0,Wunderground v.1.15,2013-03-13 05:25:00,
2013-03-12 22:30:00,30.5,22.9,30.30,East,92,0.0,0.0,73,0.00,,,0.00,0,Wunderground v.1.15,2013-03-13 05:30:00,
2013-03-12 22:35:00,30.0,22.4,30.31,East,91,0.0,0.0,73,0.00,,,0.00,0,Wunderground v.1.15,2013-03-13 05:35:00,
2013-03-12 22:40:00,30.1,22.8,30.31,East,92,0.0,0.0,74,0.00,,,0.00,0,Wunderground v.1.15,2013-03-13 05:40:00,
2013-03-12 22:45:00,29.7,22.4,30.30,East,92,0.0,0.0,74,0.00,,,0.00,0,Wunderground v.1.15,2013-03-13 05:45:00,
2013-03-12 22:50:00,29.1,21.8,30.31,East,91,0.0,0.0,74,0.00,,,0.00,0,Wunderground v.1.15,2013-03-13 05:50:00,
2013-03-12 22:55:00,28.5,21.9,30.30,East,91,0.0,0.0,76,0.00,,,0.00,0,Wunderground v.1.15,2013-03-13 05:55:00,
2013-03-12 23:00:00,28.1,21.5,30.30,East,91,0.0,0.0,76,0.00,,,0.00,0,Wunderground v.1.15,2013-03-13 06:00:00,
2013-03-12 23:06:00,27.9,21.6,30.30,East,92,0.0,0.0,77,0.00,,,0.00,0,Wunderground v.1.15,2013-03-13 06:06:00,
2013-03-12 23:11:00,27.7,21.7,30.31,East,91,0.0,0.0,78,0.00,,,0.00,0,Wunderground v.1.15,2013-03-13 06:11:00,
2013-03-12 23:16:00,27.4,21.7,30.31,East,91,0.0,0.0,79,0.00,,,0.00,0,Wunderground v.1.15,2013-03-13 06:16:00,
2013-03-12 23:21:00,27.1,21.5,30.31,East,91,0.0,0.0,79,0.00,,,0.00,0,Wunderground v.1.15,2013-03-13 06:21:00,
2013-03-12 23:26:00,26.6,20.7,30.31,East,92,0.0,0.0,78,0.00,,,0.00,0,Wunderground v.1.15,2013-03-13 06:26:00,
2013-03-12 23:31:00,26.1,20.8,30.31,East,91,0.0,0.0,80,0.00,,,0.00,0,Wunderground v.1.15,2013-03-13 06:31:00,
2013-03-12 23:36:00,26.1,20.8,30.31,East,91,0.0,0.0,80,0.00,,,0.00,0,Wunderground v.1.15,2013-03-13 06:36:00,
2013-03-12 23:41:00,26.0,20.7,30.31,East,92,0.0,0.0,80,0.00,,,0.00,0,Wunderground v.1.15,2013-03-13 06:41:00,
2013-03-12 23:46:00,25.9,20.9,30.31,East,92,0.0,0.0,81,0.00,,,0.00,0,Wunderground v.1.15,2013-03-13 06:46:00,
2013-03-12 23:51:00,26.0,21.0,30.31,East,91,0.0,0.0,81,0.00,,,0.00,0,Wunderground v.1.15,2013-03-13 06:51:00,
2013-03-12 23:56:00,26.3,21.3,30.31,East,92,0.0,0.0,81,0.00,,,0.00,0,Wunderground v.1.15,2013-03-13 06:56:00,